createdAt,value
2018-10-16T00:02:05.098Z,11.17
2018-10-16T00:04:35.108Z,10.90
2018-10-16T00:07:03.411Z,10.70
2018-10-16T00:09:31.539Z,11.10
2018-10-16T00:12:02.774Z,11.97
2018-10-16T00:14:31.234Z,10.30
2018-10-16T00:16:59.975Z,11.20
2018-10-16T00:19:28.136Z,10.80
2018-10-16T00:21:56.242Z,11.20
2018-10-16T00:24:24.393Z,10.93
2018-10-16T00:26:52.466Z,11.70
2018-10-16T00:29:21.215Z,12.50
2018-10-16T00:31:49.316Z,9.77
2018-10-16T00:34:17.594Z,10.30
2018-10-16T00:36:45.671Z,11.20
2018-10-16T00:39:14.968Z,10.83
2018-10-16T00:41:43.389Z,11.70
2018-10-16T00:44:12.609Z,11.13
2018-10-16T00:46:41.721Z,10.80
2018-10-16T00:49:09.800Z,10.63
2018-10-16T00:51:39.312Z,11.80
2018-10-16T00:54:07.954Z,10.70
2018-10-16T00:56:36.796Z,11.00
2018-10-16T00:59:05.036Z,10.83
2018-10-16T01:01:34.076Z,12.20
2018-10-16T01:04:03.459Z,10.30
2018-10-16T01:06:32.551Z,11.33
2018-10-16T01:09:00.789Z,11.40
2018-10-16T01:11:29.757Z,11.53
2018-10-16T01:13:58.546Z,11.70
2018-10-16T01:16:26.694Z,10.50
2018-10-16T01:18:54.814Z,10.57
2018-10-16T01:21:23.684Z,11.47
2018-10-16T01:23:51.768Z,12.17
2018-10-16T01:26:19.900Z,10.57
2018-10-16T01:28:47.985Z,11.93
2018-10-16T01:31:16.067Z,11.07
2018-10-16T01:33:44.136Z,11.90
2018-10-16T01:36:12.589Z,11.70
2018-10-16T01:38:40.713Z,11.00
2018-10-16T01:41:11.052Z,11.30
2018-10-16T01:43:39.685Z,11.17
2018-10-16T01:46:08.372Z,11.83
2018-10-16T01:48:37.051Z,10.53
2018-10-16T01:51:05.124Z,11.13
2018-10-16T01:53:33.253Z,11.70
2018-10-16T01:56:01.329Z,11.40
2018-10-16T01:58:29.473Z,12.00
2018-10-16T02:00:58.030Z,10.70
2018-10-16T02:03:26.228Z,11.50
2018-10-16T02:05:54.314Z,11.60
2018-10-16T02:08:22.477Z,11.90
2018-10-16T02:10:50.597Z,10.63
2018-10-16T02:13:18.705Z,13.20
2018-10-16T02:15:47.791Z,11.33
2018-10-16T02:18:15.918Z,10.97
2018-10-16T02:20:44.047Z,11.20
2018-10-16T02:23:12.153Z,10.90
2018-10-16T02:25:40.238Z,11.00
2018-10-16T02:28:08.663Z,11.57
2018-10-16T02:30:36.721Z,11.93
2018-10-16T02:33:05.145Z,10.63
2018-10-16T02:35:33.441Z,11.20
2018-10-16T02:38:01.881Z,12.67
2018-10-16T02:40:29.990Z,12.27
2018-10-16T02:42:58.036Z,11.83
2018-10-16T02:45:26.102Z,13.20
2018-10-16T02:47:54.308Z,12.27
2018-10-16T02:50:22.377Z,12.30
2018-10-16T02:52:50.466Z,11.77
2018-10-16T02:55:18.611Z,12.07
2018-10-16T02:57:46.668Z,11.40
2018-10-16T03:00:14.881Z,11.53
2018-10-16T03:02:42.962Z,12.20
2018-10-16T03:05:11.094Z,12.40
2018-10-16T03:07:39.530Z,11.47
2018-10-16T03:10:07.700Z,11.97
2018-10-16T03:12:36.027Z,13.20
2018-10-16T03:15:05.814Z,12.90
2018-10-16T03:17:34.472Z,11.77
2018-10-16T03:20:02.532Z,11.87
2018-10-16T03:22:30.708Z,12.50
2018-10-16T03:24:58.830Z,14.07
2018-10-16T03:27:26.927Z,12.03
2018-10-16T03:29:55.094Z,11.60
2018-10-16T03:32:23.210Z,12.40
2018-10-16T03:34:51.305Z,11.93
2018-10-16T03:37:19.430Z,11.70
2018-10-16T03:39:47.521Z,11.97
2018-10-16T03:42:15.678Z,12.13
2018-10-16T03:44:43.740Z,11.40
2018-10-16T03:47:11.837Z,13.00
2018-10-16T03:49:39.954Z,11.70
2018-10-16T03:52:08.375Z,11.50
2018-10-16T03:54:36.452Z,12.50
2018-10-16T03:57:04.617Z,11.20
2018-10-16T03:59:32.848Z,11.80
2018-10-16T04:02:00.976Z,13.10
2018-10-16T04:04:29.076Z,12.97
2018-10-16T04:06:57.166Z,12.80
2018-10-16T04:09:25.307Z,12.90
2018-10-16T04:11:53.390Z,13.07
2018-10-16T04:14:21.640Z,11.83
2018-10-16T04:16:49.726Z,12.27
2018-10-16T04:19:17.793Z,12.93
2018-10-16T04:21:46.905Z,12.00
2018-10-16T04:24:15.410Z,13.20
2018-10-16T04:26:43.666Z,12.27
2018-10-16T04:29:12.184Z,13.37
2018-10-16T04:31:40.616Z,13.13
2018-10-16T04:34:09.729Z,13.00
2018-10-16T04:36:37.876Z,13.23
2018-10-16T04:39:07.857Z,13.80
2018-10-16T04:41:36.020Z,12.50
2018-10-16T04:44:04.843Z,13.70
2018-10-16T04:46:33.090Z,13.13
2018-10-16T04:49:01.404Z,13.77
2018-10-16T04:51:29.542Z,14.03
2018-10-16T04:53:57.677Z,12.43
2018-10-16T04:56:25.884Z,13.67
2018-10-16T04:58:53.972Z,14.03
2018-10-16T05:01:22.037Z,13.10
2018-10-16T05:03:50.112Z,14.83
2018-10-16T05:06:19.053Z,13.67
2018-10-16T05:08:47.149Z,13.57
2018-10-16T05:11:15.242Z,13.70
2018-10-16T05:13:43.321Z,14.17
2018-10-16T05:16:11.492Z,12.90
2018-10-16T05:18:39.543Z,11.97
2018-10-16T05:21:07.875Z,13.13
2018-10-16T05:23:36.021Z,14.57
2018-10-16T05:26:04.163Z,13.13
2018-10-16T05:28:33.139Z,12.60
2018-10-16T05:31:01.257Z,14.27
2018-10-16T05:33:29.505Z,14.10
2018-10-16T05:35:57.554Z,15.37
2018-10-16T05:38:25.970Z,15.47
2018-10-16T05:40:54.073Z,14.70
2018-10-16T05:43:22.169Z,15.57
2018-10-16T05:45:50.370Z,14.33
2018-10-16T05:48:18.600Z,15.27
2018-10-16T05:50:46.689Z,15.60
2018-10-16T05:53:14.920Z,15.27
2018-10-16T05:55:43.013Z,14.07
2018-10-16T05:58:11.246Z,14.97
2018-10-16T06:00:40.978Z,14.07
2018-10-16T06:03:09.372Z,14.77
2018-10-16T06:05:37.715Z,13.40
2018-10-16T06:08:06.436Z,14.80
2018-10-16T06:10:34.802Z,15.37
2018-10-16T06:13:02.897Z,12.33
2018-10-16T06:15:30.978Z,13.77
2018-10-16T06:17:59.045Z,14.67
2018-10-16T06:20:27.346Z,13.53
2018-10-16T06:22:55.517Z,14.30
2018-10-16T06:25:23.654Z,13.57
2018-10-16T06:27:51.933Z,13.97
2018-10-16T06:30:20.288Z,13.20
2018-10-16T06:32:48.532Z,13.87
2018-10-16T06:35:16.599Z,14.70
2018-10-16T06:37:44.685Z,14.10
2018-10-16T06:40:13.016Z,13.57
2018-10-16T06:42:41.114Z,15.00
2018-10-16T06:45:10.070Z,14.67
2018-10-16T06:47:38.192Z,14.60
2018-10-16T06:50:07.232Z,14.77
2018-10-16T06:52:35.332Z,13.70
2018-10-16T06:55:04.039Z,13.23
2018-10-16T06:57:32.295Z,16.63
2018-10-16T07:00:00.505Z,16.93
2018-10-16T07:02:28.876Z,16.50
2018-10-16T07:04:56.984Z,16.77
2018-10-16T07:07:25.147Z,15.37
2018-10-16T07:09:53.780Z,14.57
2018-10-16T07:12:21.845Z,12.47
2018-10-16T07:14:50.021Z,13.50
2018-10-16T07:17:18.257Z,14.63
2018-10-16T07:19:46.505Z,16.10
2018-10-16T07:22:14.606Z,16.33
2018-10-16T07:24:42.947Z,15.30
2018-10-16T07:27:11.344Z,14.80
2018-10-16T07:29:40.169Z,16.67
2018-10-16T07:32:08.273Z,16.93
2018-10-16T07:34:36.962Z,16.70
2018-10-16T07:37:05.269Z,18.73
2018-10-16T07:39:33.323Z,17.83
2018-10-16T07:42:01.430Z,16.27
2018-10-16T07:44:29.662Z,17.67
2018-10-16T07:46:58.297Z,18.07
2018-10-16T07:49:26.549Z,17.87
2018-10-16T07:51:54.597Z,17.00
2018-10-16T07:54:23.590Z,18.63
2018-10-16T07:56:51.751Z,17.77
2018-10-16T07:59:19.947Z,20.23
2018-10-16T08:01:48.013Z,18.30
2018-10-16T08:04:16.136Z,18.57
2018-10-16T08:06:44.218Z,18.97
2018-10-16T08:09:14.077Z,18.00
2018-10-16T08:11:46.713Z,19.50
2018-10-16T08:14:15.952Z,18.37
2018-10-16T08:16:45.473Z,17.97
2018-10-16T08:19:13.933Z,17.63
2018-10-16T08:21:42.233Z,19.03
2018-10-16T08:24:10.345Z,19.10
2018-10-16T08:26:38.680Z,19.07
2018-10-16T08:29:07.389Z,19.33
2018-10-16T08:31:35.521Z,21.20
2018-10-16T08:34:04.078Z,19.33
2018-10-16T08:36:32.903Z,20.10
2018-10-16T08:39:01.814Z,19.80
2018-10-16T08:41:32.753Z,18.60
2018-10-16T08:44:06.225Z,20.23
2018-10-16T08:46:39.966Z,18.10
2018-10-16T08:49:13.659Z,17.23
2018-10-16T08:51:50.700Z,16.30
2018-10-16T08:54:19.518Z,17.03
2018-10-16T08:56:47.708Z,18.33
2018-10-16T08:59:15.791Z,17.47
2018-10-16T09:01:43.873Z,17.70
2018-10-16T09:04:11.933Z,16.93
2018-10-16T09:06:40.090Z,16.57
2018-10-16T09:09:09.145Z,18.53
2018-10-16T09:11:37.208Z,17.60
2018-10-16T09:14:05.679Z,17.37
2018-10-16T09:16:33.853Z,16.60
2018-10-16T09:19:01.930Z,16.97
2018-10-16T09:21:30.227Z,17.77
2018-10-16T09:23:58.348Z,16.43
2018-10-16T09:26:26.472Z,16.53
2018-10-16T09:28:54.542Z,16.80
2018-10-16T09:31:22.638Z,17.33
2018-10-16T09:33:50.902Z,19.20
2018-10-16T09:36:19.013Z,17.67
2018-10-16T09:38:47.079Z,17.10
2018-10-16T09:41:15.142Z,16.57
2018-10-16T09:43:43.280Z,15.60
2018-10-16T09:46:11.353Z,15.53
2018-10-16T09:48:39.420Z,15.30
2018-10-16T09:51:07.699Z,15.03
2018-10-16T09:53:35.988Z,14.93
2018-10-16T09:56:04.454Z,14.00
2018-10-16T09:58:32.525Z,13.80
2018-10-16T10:01:06.329Z,16.27
2018-10-16T10:03:35.926Z,12.70
2018-10-16T10:06:04.128Z,13.70
2018-10-16T10:08:33.201Z,12.30
2018-10-16T10:11:01.360Z,12.50
2018-10-16T10:13:29.748Z,12.00
2018-10-16T10:15:58.128Z,11.53
2018-10-16T10:18:26.234Z,11.73
2018-10-16T10:20:54.522Z,11.90
2018-10-16T10:23:22.763Z,15.03
2018-10-16T10:25:50.964Z,10.67
2018-10-16T10:28:19.118Z,10.97
2018-10-16T10:30:47.208Z,11.17
2018-10-16T10:33:15.646Z,9.57
2018-10-16T10:35:43.764Z,10.60
2018-10-16T10:38:11.917Z,9.00
2018-10-16T10:40:40.236Z,9.83
2018-10-16T10:43:08.557Z,9.97
2018-10-16T10:45:36.904Z,9.40
2018-10-16T10:48:05.413Z,9.17
2018-10-16T10:50:34.417Z,9.93
2018-10-16T10:53:03.505Z,9.40
2018-10-16T10:55:31.608Z,9.40
2018-10-16T10:57:59.815Z,9.10
2018-10-16T11:00:27.874Z,9.10
2018-10-16T11:02:56.090Z,10.60
2018-10-16T11:05:24.335Z,8.73
2018-10-16T11:07:52.442Z,9.27
2018-10-16T11:10:20.649Z,8.70
2018-10-16T11:12:48.792Z,9.10
2018-10-16T11:15:17.025Z,8.87
2018-10-16T11:17:45.291Z,8.57
2018-10-16T11:20:14.360Z,8.77
2018-10-16T11:22:42.936Z,8.20
2018-10-16T11:25:11.678Z,9.03
2018-10-16T11:27:40.153Z,9.20
2018-10-16T11:30:10.446Z,8.30
2018-10-16T11:32:38.985Z,8.20
2018-10-16T11:35:07.681Z,7.77
2018-10-16T11:37:36.311Z,7.83
2018-10-16T11:40:04.506Z,7.90
2018-10-16T11:42:32.605Z,8.60
2018-10-16T11:45:00.945Z,8.27
2018-10-16T11:47:29.016Z,8.13
2018-10-16T11:49:57.117Z,8.00
2018-10-16T11:52:25.521Z,9.20
2018-10-16T11:54:53.637Z,8.10
2018-10-16T11:57:21.737Z,8.03
2018-10-16T11:59:49.790Z,7.83
2018-10-16T12:02:17.936Z,8.27
2018-10-16T12:04:46.134Z,7.60
2018-10-16T12:07:14.377Z,7.40
2018-10-16T12:09:42.717Z,8.80
2018-10-16T12:12:10.826Z,8.50
2018-10-16T12:14:38.876Z,7.67
2018-10-16T12:17:14.597Z,8.63
2018-10-16T12:19:45.761Z,8.17
2018-10-16T12:22:14.223Z,7.57
2018-10-16T12:24:43.333Z,8.10
2018-10-16T12:27:11.788Z,9.40
2018-10-16T12:29:40.058Z,7.30
2018-10-16T12:32:08.164Z,7.30
2018-10-16T12:34:36.520Z,7.40
2018-10-16T12:37:05.077Z,7.70
2018-10-16T12:39:33.357Z,8.50
2018-10-16T12:42:01.678Z,7.07
2018-10-16T12:44:29.959Z,7.70
2018-10-16T12:46:58.083Z,7.30
2018-10-16T12:49:26.314Z,7.20
2018-10-16T12:51:54.373Z,7.17
2018-10-16T12:54:22.443Z,7.73
2018-10-16T12:56:50.801Z,7.40
2018-10-16T12:59:19.101Z,7.83
2018-10-16T13:01:47.302Z,9.20
2018-10-16T13:04:15.378Z,9.20
2018-10-16T13:06:44.034Z,8.87
2018-10-16T13:09:12.859Z,8.83
2018-10-16T13:11:41.821Z,8.77
2018-10-16T13:14:09.922Z,9.47
2018-10-16T13:16:38.830Z,8.93
2018-10-16T13:19:07.392Z,9.00
2018-10-16T13:21:35.755Z,9.53
2018-10-16T13:24:03.933Z,8.27
2018-10-16T13:26:32.200Z,7.57
2018-10-16T13:29:00.804Z,8.57
2018-10-16T13:31:29.265Z,7.93
2018-10-16T13:33:57.353Z,7.57
2018-10-16T13:36:25.650Z,8.33
2018-10-16T13:38:53.794Z,7.03
2018-10-16T13:41:21.876Z,8.00
2018-10-16T13:43:49.929Z,7.20
2018-10-16T13:46:18.119Z,6.93
2018-10-16T13:48:46.352Z,6.50
2018-10-16T13:51:14.400Z,6.90
2018-10-16T13:53:42.459Z,7.40
2018-10-16T13:56:10.569Z,6.70
2018-10-16T13:58:38.902Z,7.57
2018-10-16T14:01:07.396Z,6.60
2018-10-16T14:03:35.785Z,6.97
2018-10-16T14:06:04.206Z,7.60
2018-10-16T14:08:32.356Z,6.63
2018-10-16T14:11:00.427Z,7.67
2018-10-16T14:13:28.701Z,6.90
2018-10-16T14:15:56.946Z,7.80
2018-10-16T14:18:25.219Z,8.23
2018-10-16T14:20:53.289Z,8.30
2018-10-16T14:23:21.403Z,7.73
2018-10-16T14:25:49.529Z,7.87
2018-10-16T14:28:17.605Z,8.33
2018-10-16T14:30:45.689Z,8.17
2018-10-16T14:33:13.891Z,7.57
2018-10-16T14:35:42.140Z,7.80
2018-10-16T14:38:10.332Z,7.47
2018-10-16T14:40:38.501Z,7.60
2018-10-16T14:43:06.748Z,8.07
2018-10-16T14:45:34.850Z,7.60
2018-10-16T14:48:03.274Z,8.67
2018-10-16T14:50:31.543Z,7.80
2018-10-16T14:52:59.668Z,7.50
2018-10-16T14:55:28.402Z,7.47
2018-10-16T14:57:56.544Z,7.80
2018-10-16T15:00:25.298Z,8.23
2018-10-16T15:02:54.048Z,7.87
2018-10-16T15:05:22.120Z,9.87
2018-10-16T15:07:50.287Z,8.20
2018-10-16T15:10:18.425Z,8.60
2018-10-16T15:12:46.656Z,8.23
2018-10-16T15:15:14.788Z,8.07
2018-10-16T15:17:42.896Z,8.00
2018-10-16T15:20:11.271Z,8.43
2018-10-16T15:22:39.512Z,8.07
2018-10-16T15:25:08.270Z,8.27
2018-10-16T15:27:36.433Z,8.37
2018-10-16T15:30:05.674Z,8.50
2018-10-16T15:32:33.825Z,8.90
2018-10-16T15:35:01.931Z,8.47
2018-10-16T15:37:30.105Z,8.67
2018-10-16T15:39:58.240Z,8.47
2018-10-16T15:42:26.498Z,8.87
2018-10-16T15:44:54.652Z,8.50
2018-10-16T15:47:23.405Z,7.70
2018-10-16T15:49:51.727Z,8.20
2018-10-16T15:52:19.937Z,8.37
2018-10-16T15:54:48.049Z,9.57
2018-10-16T15:57:16.237Z,8.20
2018-10-16T15:59:44.303Z,8.60
2018-10-16T16:02:12.611Z,8.90
2018-10-16T16:04:40.857Z,9.10
2018-10-16T16:07:09.134Z,8.20
2018-10-16T16:09:37.192Z,7.70
2018-10-16T16:12:06.401Z,8.67
2018-10-16T16:14:34.670Z,8.17
2018-10-16T16:17:02.781Z,8.60
2018-10-16T16:19:30.996Z,8.57
2018-10-16T16:21:59.122Z,8.33
2018-10-16T16:24:27.521Z,8.40
2018-10-16T16:26:55.757Z,8.27
2018-10-16T16:29:23.874Z,7.67
2018-10-16T16:31:53.303Z,9.70
2018-10-16T16:34:22.083Z,9.00
2018-10-16T16:36:50.360Z,9.37
2018-10-16T16:39:18.563Z,8.70
2018-10-16T16:41:46.966Z,9.43
2018-10-16T16:44:15.109Z,8.77
2018-10-16T16:46:43.306Z,9.33
2018-10-16T16:49:11.487Z,8.73
2018-10-16T16:51:39.648Z,8.90
2018-10-16T16:54:07.912Z,10.13
2018-10-16T16:56:36.229Z,10.40
2018-10-16T16:59:04.408Z,9.70
2018-10-16T17:01:32.681Z,9.97
2018-10-16T17:04:00.875Z,9.57
2018-10-16T17:06:29.229Z,8.73
2018-10-16T17:08:57.425Z,9.93
2018-10-16T17:11:25.604Z,9.10
2018-10-16T17:13:53.804Z,9.17
2018-10-16T17:16:22.123Z,10.20
2018-10-16T17:18:50.246Z,9.70
2018-10-16T17:21:18.530Z,9.40
2018-10-16T17:23:46.638Z,9.53
2018-10-16T17:26:15.170Z,8.73
2018-10-16T17:28:43.135Z,10.40
2018-10-16T17:31:11.317Z,10.37
2018-10-16T17:33:39.484Z,9.20
2018-10-16T17:36:07.573Z,8.60
2018-10-16T17:38:35.733Z,8.80
2018-10-16T17:41:03.833Z,9.60
2018-10-16T17:43:32.080Z,9.00
2018-10-16T17:46:00.423Z,8.70
2018-10-16T17:48:28.551Z,9.10
2018-10-16T17:50:56.680Z,8.67
2018-10-16T17:53:24.989Z,9.00
2018-10-16T17:55:53.317Z,9.13
2018-10-16T17:58:21.379Z,8.93
2018-10-16T18:00:49.643Z,9.40
2018-10-16T18:03:18.223Z,8.67
2018-10-16T18:05:46.340Z,8.77
2018-10-16T18:08:14.486Z,8.67
2018-10-16T18:10:42.596Z,10.13
2018-10-16T18:13:10.717Z,9.47
2018-10-16T18:15:39.001Z,9.10
2018-10-16T18:18:07.305Z,9.50
2018-10-16T18:20:35.556Z,9.90
2018-10-16T18:23:03.645Z,9.90
2018-10-16T18:25:31.817Z,9.80
2018-10-16T18:28:00.060Z,10.00
2018-10-16T18:30:28.217Z,9.80
2018-10-16T18:32:56.326Z,9.93
2018-10-16T18:35:24.656Z,10.27
2018-10-16T18:37:52.793Z,10.27
2018-10-16T18:40:20.966Z,9.43
2018-10-16T18:42:49.105Z,9.33
2018-10-16T18:45:17.235Z,10.10
2018-10-16T18:47:45.560Z,11.43
2018-10-16T18:50:14.454Z,10.57
2018-10-16T18:52:43.249Z,10.90
2018-10-16T18:55:12.788Z,11.60
2018-10-16T18:57:40.910Z,11.40
2018-10-16T19:00:10.308Z,11.90
2018-10-16T19:02:38.625Z,10.87
2018-10-16T19:05:07.521Z,11.60
2018-10-16T19:07:35.682Z,11.23
2018-10-16T19:10:04.180Z,11.13
2018-10-16T19:12:32.368Z,11.20
2018-10-16T19:15:01.566Z,11.67
2018-10-16T19:17:29.898Z,11.43
2018-10-16T19:19:58.065Z,11.27
2018-10-16T19:22:26.389Z,12.23
2018-10-16T19:24:54.560Z,11.87
2018-10-16T19:27:22.929Z,12.77
2018-10-16T19:29:51.205Z,13.30
2018-10-16T19:32:19.326Z,11.17
2018-10-16T19:34:47.567Z,11.60
2018-10-16T19:37:15.699Z,11.50
2018-10-16T19:39:43.898Z,11.37
2018-10-16T19:42:12.132Z,11.07
2018-10-16T19:44:40.240Z,12.90
2018-10-16T19:47:08.369Z,12.20
2018-10-16T19:49:36.490Z,12.53
2018-10-16T19:52:05.291Z,12.60
2018-10-16T19:54:33.348Z,12.50
2018-10-16T19:57:01.529Z,12.50
2018-10-16T19:59:29.726Z,11.53
2018-10-16T20:01:57.871Z,12.17
2018-10-16T20:04:25.978Z,12.50
2018-10-16T20:06:54.163Z,12.33
2018-10-16T20:09:22.353Z,11.20
2018-10-16T20:11:50.616Z,12.07
2018-10-16T20:14:18.827Z,11.97
2018-10-16T20:16:47.053Z,12.57
2018-10-16T20:19:15.299Z,12.67
2018-10-16T20:21:43.438Z,12.10
2018-10-16T20:24:11.613Z,12.67
2018-10-16T20:26:39.749Z,13.23
2018-10-16T20:29:07.907Z,12.67
2018-10-16T20:31:36.151Z,12.60
2018-10-16T20:34:04.630Z,12.63
2018-10-16T20:36:32.723Z,12.43
2018-10-16T20:39:01.041Z,12.93
2018-10-16T20:41:29.292Z,13.17
2018-10-16T20:43:57.499Z,15.00
2018-10-16T20:46:25.608Z,13.47
2018-10-16T20:48:53.824Z,12.60
2018-10-16T20:51:22.105Z,13.30
2018-10-16T20:53:50.291Z,13.60
2018-10-16T20:56:18.453Z,14.70
2018-10-16T20:58:46.540Z,13.00
2018-10-16T21:01:15.253Z,13.83
2018-10-16T21:03:43.353Z,14.10
2018-10-16T21:06:11.730Z,14.27
2018-10-16T21:08:39.968Z,14.77
2018-10-16T21:11:08.027Z,14.37
2018-10-16T21:13:36.345Z,13.47
2018-10-16T21:16:04.725Z,13.83
2018-10-16T21:18:32.842Z,14.07
2018-10-16T21:21:00.978Z,13.80
2018-10-16T21:23:29.115Z,13.47
2018-10-16T21:25:57.283Z,13.73
2018-10-16T21:28:25.480Z,13.43
2018-10-16T21:30:53.736Z,13.70
2018-10-16T21:33:22.021Z,14.10
2018-10-16T21:35:50.090Z,14.23
2018-10-16T21:38:18.275Z,14.77
2018-10-16T21:40:46.625Z,13.37
2018-10-16T21:43:14.909Z,14.00
2018-10-16T21:45:43.605Z,14.63
2018-10-16T21:48:11.661Z,15.33
2018-10-16T21:50:39.746Z,13.80
2018-10-16T21:53:07.885Z,13.63
2018-10-16T21:55:36.229Z,14.67
2018-10-16T21:58:04.685Z,13.57
2018-10-16T22:00:38.645Z,13.27
2018-10-16T22:03:06.768Z,13.80
2018-10-16T22:05:34.973Z,13.90
2018-10-16T22:08:03.109Z,13.80
2018-10-16T22:10:31.315Z,13.60
2018-10-16T22:12:59.603Z,14.63
2018-10-16T22:15:27.868Z,12.87
2018-10-16T22:17:56.072Z,13.43
2018-10-16T22:20:24.192Z,13.47
2018-10-16T22:22:52.371Z,12.93
2018-10-16T22:25:20.677Z,14.60
2018-10-16T22:27:48.754Z,13.53
2018-10-16T22:30:16.852Z,14.13
2018-10-16T22:32:45.101Z,13.47
2018-10-16T22:35:13.219Z,12.33
2018-10-16T22:37:41.445Z,13.00
2018-10-16T22:40:10.209Z,12.97
2018-10-16T22:42:38.312Z,14.00
2018-10-16T22:45:06.764Z,14.37
2018-10-16T22:47:34.826Z,14.17
2018-10-16T22:50:03.115Z,13.80
2018-10-16T22:52:31.444Z,13.07
2018-10-16T22:54:59.576Z,13.03
2018-10-16T22:57:27.833Z,13.17
2018-10-16T22:59:55.925Z,14.40
2018-10-16T23:02:24.026Z,13.50
2018-10-16T23:04:52.136Z,13.87
2018-10-16T23:07:20.376Z,15.30
2018-10-16T23:09:48.580Z,13.80
2018-10-16T23:12:16.652Z,14.17
2018-10-16T23:14:44.709Z,12.77
2018-10-16T23:17:13.003Z,12.80
2018-10-16T23:19:41.249Z,14.00
2018-10-16T23:22:09.317Z,13.43
2018-10-16T23:24:37.388Z,13.17
2018-10-16T23:27:05.459Z,12.60
2018-10-16T23:29:33.525Z,12.60
2018-10-16T23:32:01.617Z,13.67
2018-10-16T23:34:29.696Z,13.00
2018-10-16T23:36:57.858Z,13.87
2018-10-16T23:39:26.100Z,13.90
2018-10-16T23:41:54.208Z,13.33
2018-10-16T23:44:22.276Z,13.90
2018-10-16T23:46:50.419Z,12.27
2018-10-16T23:49:18.752Z,12.33
2018-10-16T23:51:46.913Z,12.50
2018-10-16T23:54:14.989Z,12.90
2018-10-16T23:56:43.073Z,13.80
2018-10-16T23:59:11.270Z,12.90
